sensor_id;sensor_type;location;lat;lon;timestamp;temperature;humidity
36352;DHT22;22382;44.768;17.206;2024-02-21T00:01:43;7.90;99.90
36352;DHT22;22382;44.768;17.206;2024-02-21T00:04:11;7.90;99.90
36352;DHT22;22382;44.768;17.206;2024-02-21T00:06:38;8.10;99.90
36352;DHT22;22382;44.768;17.206;2024-02-21T00:09:05;8.10;99.90
36352;DHT22;22382;44.768;17.206;2024-02-21T00:11:32;8.20;99.90
36352;DHT22;22382;44.768;17.206;2024-02-21T00:13:59;8.10;99.90
36352;DHT22;22382;44.768;17.206;2024-02-21T00:16:27;8.10;99.90
36352;DHT22;22382;44.768;17.206;2024-02-21T00:18:54;8.00;99.90
36352;DHT22;22382;44.768;17.206;2024-02-21T00:21:21;8.00;99.90
36352;DHT22;22382;44.768;17.206;2024-02-21T00:23:49;8.00;99.90
36352;DHT22;22382;44.768;17.206;2024-02-21T00:26:17;8.00;99.90
36352;DHT22;22382;44.768;17.206;2024-02-21T00:28:45;8.00;99.90
36352;DHT22;22382;44.768;17.206;2024-02-21T00:31:12;8.00;99.90
36352;DHT22;22382;44.768;17.206;2024-02-21T00:33:39;8.10;99.90
36352;DHT22;22382;44.768;17.206;2024-02-21T00:36:06;8.00;99.90
36352;DHT22;22382;44.768;17.206;2024-02-21T00:38:33;8.10;99.90
36352;DHT22;22382;44.768;17.206;2024-02-21T00:41:01;8.10;99.90
36352;DHT22;22382;44.768;17.206;2024-02-21T00:43:28;8.20;99.90
36352;DHT22;22382;44.768;17.206;2024-02-21T00:45:55;8.20;99.90
36352;DHT22;22382;44.768;17.206;2024-02-21T00:48:23;8.20;99.90
36352;DHT22;22382;44.768;17.206;2024-02-21T00:50:50;8.30;99.90
36352;DHT22;22382;44.768;17.206;2024-02-21T00:53:18;8.40;99.90
36352;DHT22;22382;44.768;17.206;2024-02-21T00:55:45;8.40;99.90
36352;DHT22;22382;44.768;17.206;2024-02-21T00:58:13;8.40;99.90
36352;DHT22;22382;44.768;17.206;2024-02-21T01:00:40;8.40;99.90
36352;DHT22;22382;44.768;17.206;2024-02-21T01:03:07;8.30;99.90
36352;DHT22;22382;44.768;17.206;2024-02-21T01:05:34;8.40;99.90
36352;DHT22;22382;44.768;17.206;2024-02-21T01:08:02;8.40;99.90
36352;DHT22;22382;44.768;17.206;2024-02-21T01:10:29;8.40;99.90
36352;DHT22;22382;44.768;17.206;2024-02-21T01:12:56;8.40;99.90
36352;DHT22;22382;44.768;17.206;2024-02-21T01:15:24;8.40;99.90
36352;DHT22;22382;44.768;17.206;2024-02-21T01:17:51;8.40;99.90
36352;DHT22;22382;44.768;17.206;2024-02-21T01:20:22;8.40;99.90
36352;DHT22;22382;44.768;17.206;2024-02-21T01:22:49;8.50;99.90
36352;DHT22;22382;44.768;17.206;2024-02-21T01:25:16;8.50;99.90
36352;DHT22;22382;44.768;17.206;2024-02-21T01:27:44;8.50;99.90
36352;DHT22;22382;44.768;17.206;2024-02-21T01:30:11;8.50;99.90
36352;DHT22;22382;44.768;17.206;2024-02-21T01:32:38;8.50;99.90
36352;DHT22;22382;44.768;17.206;2024-02-21T01:35:06;8.50;99.90
36352;DHT22;22382;44.768;17.206;2024-02-21T01:37:34;8.50;99.90
36352;DHT22;22382;44.768;17.206;2024-02-21T01:40:01;8.50;99.90
36352;DHT22;22382;44.768;17.206;2024-02-21T01:42:30;8.50;99.90
36352;DHT22;22382;44.768;17.206;2024-02-21T01:44:57;8.50;99.90
36352;DHT22;22382;44.768;17.206;2024-02-21T01:47:24;8.50;99.90
36352;DHT22;22382;44.768;17.206;2024-02-21T01:49:52;8.50;99.90
36352;DHT22;22382;44.768;17.206;2024-02-21T01:52:19;8.50;99.90
36352;DHT22;22382;44.768;17.206;2024-02-21T01:54:47;8.50;99.90
36352;DHT22;22382;44.768;17.206;2024-02-21T01:57:14;8.50;99.90
36352;DHT22;22382;44.768;17.206;2024-02-21T01:59:42;8.50;99.90
36352;DHT22;22382;44.768;17.206;2024-02-21T02:02:09;8.50;99.90
36352;DHT22;22382;44.768;17.206;2024-02-21T02:04:38;8.50;99.90
36352;DHT22;22382;44.768;17.206;2024-02-21T02:07:07;8.50;99.90
36352;DHT22;22382;44.768;17.206;2024-02-21T02:09:35;8.50;99.90
36352;DHT22;22382;44.768;17.206;2024-02-21T02:12:02;8.50;99.90
36352;DHT22;22382;44.768;17.206;2024-02-21T02:14:29;8.50;99.90
36352;DHT22;22382;44.768;17.206;2024-02-21T02:16:57;8.50;99.90
36352;DHT22;22382;44.768;17.206;2024-02-21T02:19:24;8.50;99.90
36352;DHT22;22382;44.768;17.206;2024-02-21T02:21:59;8.60;99.90
36352;DHT22;22382;44.768;17.206;2024-02-21T02:24:27;8.60;99.90
36352;DHT22;22382;44.768;17.206;2024-02-21T02:26:54;8.60;99.90
36352;DHT22;22382;44.768;17.206;2024-02-21T02:29:21;8.60;99.90
36352;DHT22;22382;44.768;17.206;2024-02-21T02:31:49;8.50;99.90
36352;DHT22;22382;44.768;17.206;2024-02-21T02:34:17;8.60;99.90
36352;DHT22;22382;44.768;17.206;2024-02-21T02:36:45;8.50;99.90
36352;DHT22;22382;44.768;17.206;2024-02-21T02:39:12;8.50;99.90
36352;DHT22;22382;44.768;17.206;2024-02-21T02:41:40;8.50;99.90
36352;DHT22;22382;44.768;17.206;2024-02-21T02:44:07;8.40;99.90
36352;DHT22;22382;44.768;17.206;2024-02-21T02:46:35;8.30;99.90
36352;DHT22;22382;44.768;17.206;2024-02-21T02:49:02;8.20;99.90
36352;DHT22;22382;44.768;17.206;2024-02-21T02:51:30;8.30;99.90
36352;DHT22;22382;44.768;17.206;2024-02-21T02:53:57;8.30;99.90
36352;DHT22;22382;44.768;17.206;2024-02-21T02:56:25;8.30;99.90
36352;DHT22;22382;44.768;17.206;2024-02-21T02:58:52;8.30;99.90
36352;DHT22;22382;44.768;17.206;2024-02-21T03:01:20;8.30;99.90
36352;DHT22;22382;44.768;17.206;2024-02-21T03:03:47;8.30;99.90
36352;DHT22;22382;44.768;17.206;2024-02-21T03:06:15;8.20;99.90
36352;DHT22;22382;44.768;17.206;2024-02-21T03:08:43;8.10;99.90
36352;DHT22;22382;44.768;17.206;2024-02-21T03:11:10;8.10;99.90
36352;DHT22;22382;44.768;17.206;2024-02-21T03:13:38;8.00;99.90
36352;DHT22;22382;44.768;17.206;2024-02-21T03:16:06;8.00;99.90
36352;DHT22;22382;44.768;17.206;2024-02-21T03:18:34;7.90;99.90
36352;DHT22;22382;44.768;17.206;2024-02-21T03:21:02;7.90;99.90
36352;DHT22;22382;44.768;17.206;2024-02-21T03:23:29;7.80;99.90
36352;DHT22;22382;44.768;17.206;2024-02-21T03:25:57;7.80;99.90
36352;DHT22;22382;44.768;17.206;2024-02-21T03:28:25;7.80;99.90
36352;DHT22;22382;44.768;17.206;2024-02-21T03:30:52;7.70;99.90
36352;DHT22;22382;44.768;17.206;2024-02-21T03:33:20;7.80;99.90
36352;DHT22;22382;44.768;17.206;2024-02-21T03:35:50;7.80;99.90
36352;DHT22;22382;44.768;17.206;2024-02-21T03:38:18;7.80;99.90
36352;DHT22;22382;44.768;17.206;2024-02-21T03:40:46;7.80;99.90
36352;DHT22;22382;44.768;17.206;2024-02-21T03:43:13;7.80;99.90
36352;DHT22;22382;44.768;17.206;2024-02-21T03:45:41;7.80;99.90
36352;DHT22;22382;44.768;17.206;2024-02-21T03:48:08;7.80;99.90
36352;DHT22;22382;44.768;17.206;2024-02-21T03:50:36;7.80;99.90
36352;DHT22;22382;44.768;17.206;2024-02-21T03:53:04;7.80;99.90
36352;DHT22;22382;44.768;17.206;2024-02-21T03:55:31;7.80;99.90
36352;DHT22;22382;44.768;17.206;2024-02-21T03:57:59;7.80;99.90
36352;DHT22;22382;44.768;17.206;2024-02-21T04:00:26;7.80;99.90
36352;DHT22;22382;44.768;17.206;2024-02-21T04:02:53;7.80;99.90
36352;DHT22;22382;44.768;17.206;2024-02-21T04:05:22;7.70;99.90
36352;DHT22;22382;44.768;17.206;2024-02-21T04:07:50;7.70;99.90
36352;DHT22;22382;44.768;17.206;2024-02-21T04:10:19;7.70;99.90
36352;DHT22;22382;44.768;17.206;2024-02-21T04:12:46;7.70;99.90
36352;DHT22;22382;44.768;17.206;2024-02-21T04:15:17;7.70;99.90
36352;DHT22;22382;44.768;17.206;2024-02-21T04:17:45;7.70;99.90
36352;DHT22;22382;44.768;17.206;2024-02-21T04:20:17;7.70;99.90
36352;DHT22;22382;44.768;17.206;2024-02-21T04:22:45;7.70;99.90
36352;DHT22;22382;44.768;17.206;2024-02-21T04:25:13;7.70;99.90
36352;DHT22;22382;44.768;17.206;2024-02-21T04:27:42;7.70;99.90
36352;DHT22;22382;44.768;17.206;2024-02-21T04:30:09;7.70;99.90
36352;DHT22;22382;44.768;17.206;2024-02-21T04:32:37;7.80;99.90
36352;DHT22;22382;44.768;17.206;2024-02-21T04:35:05;7.80;99.90
36352;DHT22;22382;44.768;17.206;2024-02-21T04:37:32;7.80;99.90
36352;DHT22;22382;44.768;17.206;2024-02-21T04:40:00;7.80;99.90
36352;DHT22;22382;44.768;17.206;2024-02-21T04:42:28;7.80;99.90
36352;DHT22;22382;44.768;17.206;2024-02-21T04:44:55;7.80;99.90
36352;DHT22;22382;44.768;17.206;2024-02-21T04:47:23;7.90;99.90
36352;DHT22;22382;44.768;17.206;2024-02-21T04:49:53;7.80;99.90
36352;DHT22;22382;44.768;17.206;2024-02-21T04:52:21;7.80;99.90
36352;DHT22;22382;44.768;17.206;2024-02-21T04:54:49;7.80;99.90
36352;DHT22;22382;44.768;17.206;2024-02-21T04:57:16;7.80;99.90
36352;DHT22;22382;44.768;17.206;2024-02-21T04:59:44;7.80;99.90
36352;DHT22;22382;44.768;17.206;2024-02-21T05:02:13;7.80;99.90
36352;DHT22;22382;44.768;17.206;2024-02-21T05:04:42;7.80;99.90
36352;DHT22;22382;44.768;17.206;2024-02-21T05:07:11;7.80;99.90
36352;DHT22;22382;44.768;17.206;2024-02-21T05:09:39;7.80;99.90
36352;DHT22;22382;44.768;17.206;2024-02-21T05:12:07;7.80;99.90
36352;DHT22;22382;44.768;17.206;2024-02-21T05:14:34;7.80;99.90
36352;DHT22;22382;44.768;17.206;2024-02-21T05:17:02;7.80;99.90
36352;DHT22;22382;44.768;17.206;2024-02-21T05:19:29;7.80;99.90
36352;DHT22;22382;44.768;17.206;2024-02-21T05:21:58;7.80;99.90
36352;DHT22;22382;44.768;17.206;2024-02-21T05:24:26;7.80;99.90
36352;DHT22;22382;44.768;17.206;2024-02-21T05:26:54;7.80;99.90
36352;DHT22;22382;44.768;17.206;2024-02-21T05:29:21;7.80;99.90
36352;DHT22;22382;44.768;17.206;2024-02-21T05:34:19;7.80;99.90
36352;DHT22;22382;44.768;17.206;2024-02-21T05:36:46;7.90;99.90
36352;DHT22;22382;44.768;17.206;2024-02-21T05:39:14;7.90;99.90
36352;DHT22;22382;44.768;17.206;2024-02-21T05:41:42;7.90;99.90
36352;DHT22;22382;44.768;17.206;2024-02-21T05:44:09;7.90;99.90
36352;DHT22;22382;44.768;17.206;2024-02-21T05:46:36;7.90;99.90
36352;DHT22;22382;44.768;17.206;2024-02-21T05:49:03;7.90;99.90
36352;DHT22;22382;44.768;17.206;2024-02-21T05:51:34;7.90;99.90
36352;DHT22;22382;44.768;17.206;2024-02-21T05:54:02;7.90;99.90
36352;DHT22;22382;44.768;17.206;2024-02-21T05:56:29;7.90;99.90
36352;DHT22;22382;44.768;17.206;2024-02-21T05:58:56;7.90;99.90
36352;DHT22;22382;44.768;17.206;2024-02-21T06:01:24;7.90;99.90
36352;DHT22;22382;44.768;17.206;2024-02-21T06:03:52;7.90;99.90
36352;DHT22;22382;44.768;17.206;2024-02-21T06:06:19;7.90;99.90
36352;DHT22;22382;44.768;17.206;2024-02-21T06:08:49;8.00;99.90
36352;DHT22;22382;44.768;17.206;2024-02-21T06:11:16;8.00;99.90
36352;DHT22;22382;44.768;17.206;2024-02-21T06:13:43;8.00;99.90
36352;DHT22;22382;44.768;17.206;2024-02-21T06:16:11;8.00;99.90
36352;DHT22;22382;44.768;17.206;2024-02-21T06:18:38;8.00;99.90
36352;DHT22;22382;44.768;17.206;2024-02-21T06:21:06;8.00;99.90
36352;DHT22;22382;44.768;17.206;2024-02-21T06:23:33;8.10;99.90
36352;DHT22;22382;44.768;17.206;2024-02-21T06:26:00;8.10;99.90
36352;DHT22;22382;44.768;17.206;2024-02-21T06:28:28;8.10;99.90
36352;DHT22;22382;44.768;17.206;2024-02-21T06:30:57;8.20;99.90
36352;DHT22;22382;44.768;17.206;2024-02-21T06:33:24;8.20;99.90
36352;DHT22;22382;44.768;17.206;2024-02-21T06:35:52;8.20;99.90
36352;DHT22;22382;44.768;17.206;2024-02-21T06:38:20;8.20;99.90
36352;DHT22;22382;44.768;17.206;2024-02-21T06:40:47;8.20;99.90
36352;DHT22;22382;44.768;17.206;2024-02-21T06:43:18;8.20;99.90
36352;DHT22;22382;44.768;17.206;2024-02-21T06:45:46;8.20;99.90
36352;DHT22;22382;44.768;17.206;2024-02-21T06:48:18;8.20;99.90
36352;DHT22;22382;44.768;17.206;2024-02-21T06:50:46;8.20;99.90
36352;DHT22;22382;44.768;17.206;2024-02-21T06:53:14;8.20;99.90
36352;DHT22;22382;44.768;17.206;2024-02-21T06:55:41;8.20;99.90
36352;DHT22;22382;44.768;17.206;2024-02-21T06:58:08;8.20;99.90
36352;DHT22;22382;44.768;17.206;2024-02-21T07:00:42;8.20;99.90
36352;DHT22;22382;44.768;17.206;2024-02-21T07:03:09;8.30;99.90
36352;DHT22;22382;44.768;17.206;2024-02-21T07:05:36;8.30;99.90
36352;DHT22;22382;44.768;17.206;2024-02-21T07:08:04;8.30;99.90
36352;DHT22;22382;44.768;17.206;2024-02-21T07:10:31;8.30;99.90
36352;DHT22;22382;44.768;17.206;2024-02-21T07:12:58;8.40;99.90
36352;DHT22;22382;44.768;17.206;2024-02-21T07:15:27;8.40;99.90
36352;DHT22;22382;44.768;17.206;2024-02-21T07:17:55;8.40;99.90
36352;DHT22;22382;44.768;17.206;2024-02-21T07:20:22;8.50;99.90
36352;DHT22;22382;44.768;17.206;2024-02-21T07:22:50;8.60;99.90
36352;DHT22;22382;44.768;17.206;2024-02-21T07:25:17;8.70;99.90
36352;DHT22;22382;44.768;17.206;2024-02-21T07:27:45;8.80;99.90
36352;DHT22;22382;44.768;17.206;2024-02-21T07:30:12;8.90;99.90
36352;DHT22;22382;44.768;17.206;2024-02-21T07:32:43;8.90;99.90
36352;DHT22;22382;44.768;17.206;2024-02-21T07:35:10;9.00;99.90
36352;DHT22;22382;44.768;17.206;2024-02-21T07:37:39;8.90;99.90
36352;DHT22;22382;44.768;17.206;2024-02-21T07:40:12;8.90;99.90
36352;DHT22;22382;44.768;17.206;2024-02-21T07:42:39;8.90;99.90
36352;DHT22;22382;44.768;17.206;2024-02-21T07:45:09;8.90;99.90
36352;DHT22;22382;44.768;17.206;2024-02-21T07:47:37;8.90;99.90
36352;DHT22;22382;44.768;17.206;2024-02-21T07:50:05;8.90;99.90
36352;DHT22;22382;44.768;17.206;2024-02-21T07:52:32;8.90;99.90
36352;DHT22;22382;44.768;17.206;2024-02-21T07:55:00;8.90;99.90
36352;DHT22;22382;44.768;17.206;2024-02-21T07:57:27;9.00;99.90
36352;DHT22;22382;44.768;17.206;2024-02-21T07:59:54;9.00;99.90
36352;DHT22;22382;44.768;17.206;2024-02-21T08:02:22;8.90;99.90
36352;DHT22;22382;44.768;17.206;2024-02-21T08:04:49;9.00;99.90
36352;DHT22;22382;44.768;17.206;2024-02-21T08:07:16;9.20;99.90
36352;DHT22;22382;44.768;17.206;2024-02-21T08:09:43;9.30;99.90
36352;DHT22;22382;44.768;17.206;2024-02-21T08:12:11;9.50;99.90
36352;DHT22;22382;44.768;17.206;2024-02-21T08:14:38;9.80;99.90
36352;DHT22;22382;44.768;17.206;2024-02-21T08:17:05;9.80;99.90
36352;DHT22;22382;44.768;17.206;2024-02-21T08:19:33;10.00;99.90
36352;DHT22;22382;44.768;17.206;2024-02-21T08:22:00;10.20;99.90
36352;DHT22;22382;44.768;17.206;2024-02-21T08:24:27;10.50;99.90
36352;DHT22;22382;44.768;17.206;2024-02-21T08:26:55;10.70;99.90
36352;DHT22;22382;44.768;17.206;2024-02-21T08:29:22;11.00;99.90
36352;DHT22;22382;44.768;17.206;2024-02-21T08:31:49;11.30;99.90
36352;DHT22;22382;44.768;17.206;2024-02-21T08:34:17;11.50;99.90
36352;DHT22;22382;44.768;17.206;2024-02-21T08:36:45;11.20;99.90
36352;DHT22;22382;44.768;17.206;2024-02-21T08:39:12;11.20;99.90
36352;DHT22;22382;44.768;17.206;2024-02-21T08:41:43;11.30;99.90
36352;DHT22;22382;44.768;17.206;2024-02-21T08:44:28;11.30;99.90
36352;DHT22;22382;44.768;17.206;2024-02-21T08:46:55;11.60;99.90
36352;DHT22;22382;44.768;17.206;2024-02-21T08:49:24;11.50;99.90
36352;DHT22;22382;44.768;17.206;2024-02-21T08:52:00;11.70;99.90
36352;DHT22;22382;44.768;17.206;2024-02-21T08:54:27;11.50;99.90
36352;DHT22;22382;44.768;17.206;2024-02-21T08:56:55;11.30;99.90
36352;DHT22;22382;44.768;17.206;2024-02-21T08:59:23;11.30;99.90
36352;DHT22;22382;44.768;17.206;2024-02-21T09:01:51;11.40;99.40
36352;DHT22;22382;44.768;17.206;2024-02-21T09:04:21;11.50;99.20
36352;DHT22;22382;44.768;17.206;2024-02-21T09:06:49;11.60;99.00
36352;DHT22;22382;44.768;17.206;2024-02-21T09:09:16;11.70;99.30
36352;DHT22;22382;44.768;17.206;2024-02-21T09:11:44;11.70;99.10
36352;DHT22;22382;44.768;17.206;2024-02-21T09:14:11;11.70;97.60
36352;DHT22;22382;44.768;17.206;2024-02-21T09:16:38;11.80;96.80
36352;DHT22;22382;44.768;17.206;2024-02-21T09:19:06;11.80;95.60
36352;DHT22;22382;44.768;17.206;2024-02-21T09:21:38;11.90;94.80
36352;DHT22;22382;44.768;17.206;2024-02-21T09:24:06;12.20;94.40
36352;DHT22;22382;44.768;17.206;2024-02-21T09:26:33;12.20;93.80
36352;DHT22;22382;44.768;17.206;2024-02-21T09:29:00;12.30;93.60
36352;DHT22;22382;44.768;17.206;2024-02-21T09:31:28;12.30;93.00
36352;DHT22;22382;44.768;17.206;2024-02-21T09:33:55;12.10;88.90
36352;DHT22;22382;44.768;17.206;2024-02-21T09:36:22;12.00;88.30
36352;DHT22;22382;44.768;17.206;2024-02-21T09:38:50;12.10;90.10
36352;DHT22;22382;44.768;17.206;2024-02-21T09:41:18;12.10;89.20
36352;DHT22;22382;44.768;17.206;2024-02-21T09:43:52;12.00;88.60
36352;DHT22;22382;44.768;17.206;2024-02-21T09:46:45;12.10;87.10
36352;DHT22;22382;44.768;17.206;2024-02-21T09:49:31;12.20;89.40
36352;DHT22;22382;44.768;17.206;2024-02-21T09:52:04;12.30;88.30
36352;DHT22;22382;44.768;17.206;2024-02-21T09:54:35;12.40;86.20
36352;DHT22;22382;44.768;17.206;2024-02-21T09:57:03;12.50;88.00
36352;DHT22;22382;44.768;17.206;2024-02-21T09:59:33;12.50;85.40
36352;DHT22;22382;44.768;17.206;2024-02-21T10:02:01;12.40;83.30
36352;DHT22;22382;44.768;17.206;2024-02-21T10:04:29;12.40;80.80
36352;DHT22;22382;44.768;17.206;2024-02-21T10:06:57;12.40;78.80
36352;DHT22;22382;44.768;17.206;2024-02-21T10:09:26;12.50;80.40
36352;DHT22;22382;44.768;17.206;2024-02-21T10:12:08;12.50;80.30
36352;DHT22;22382;44.768;17.206;2024-02-21T10:14:37;12.60;79.60
36352;DHT22;22382;44.768;17.206;2024-02-21T10:17:04;12.70;79.50
36352;DHT22;22382;44.768;17.206;2024-02-21T10:19:37;12.80;78.50
36352;DHT22;22382;44.768;17.206;2024-02-21T10:22:08;12.80;76.80
36352;DHT22;22382;44.768;17.206;2024-02-21T10:24:37;12.60;77.40
36352;DHT22;22382;44.768;17.206;2024-02-21T10:27:10;12.40;78.70
36352;DHT22;22382;44.768;17.206;2024-02-21T10:29:40;12.40;77.90
36352;DHT22;22382;44.768;17.206;2024-02-21T10:32:13;12.50;78.50
36352;DHT22;22382;44.768;17.206;2024-02-21T10:34:42;12.80;79.00
36352;DHT22;22382;44.768;17.206;2024-02-21T10:37:11;13.00;78.40
36352;DHT22;22382;44.768;17.206;2024-02-21T10:39:43;13.00;78.30
36352;DHT22;22382;44.768;17.206;2024-02-21T10:42:12;13.10;76.10
36352;DHT22;22382;44.768;17.206;2024-02-21T10:44:41;13.10;76.10
36352;DHT22;22382;44.768;17.206;2024-02-21T10:47:12;13.10;75.50
36352;DHT22;22382;44.768;17.206;2024-02-21T10:49:41;13.10;72.70
36352;DHT22;22382;44.768;17.206;2024-02-21T10:52:33;13.20;72.80
36352;DHT22;22382;44.768;17.206;2024-02-21T10:55:30;13.50;72.30
36352;DHT22;22382;44.768;17.206;2024-02-21T10:57:59;13.50;73.90
36352;DHT22;22382;44.768;17.206;2024-02-21T11:00:28;13.50;73.30
36352;DHT22;22382;44.768;17.206;2024-02-21T11:02:58;13.50;71.60
36352;DHT22;22382;44.768;17.206;2024-02-21T11:05:26;13.30;71.80
36352;DHT22;22382;44.768;17.206;2024-02-21T11:07:55;13.20;69.70
36352;DHT22;22382;44.768;17.206;2024-02-21T11:10:23;13.30;71.10
36352;DHT22;22382;44.768;17.206;2024-02-21T11:13:06;13.30;69.50
36352;DHT22;22382;44.768;17.206;2024-02-21T11:15:34;13.30;71.10
36352;DHT22;22382;44.768;17.206;2024-02-21T11:18:01;13.30;71.20
36352;DHT22;22382;44.768;17.206;2024-02-21T11:20:33;13.50;70.90
36352;DHT22;22382;44.768;17.206;2024-02-21T11:23:01;13.50;70.90
36352;DHT22;22382;44.768;17.206;2024-02-21T11:25:29;13.60;70.10
36352;DHT22;22382;44.768;17.206;2024-02-21T11:28:05;13.70;70.60
36352;DHT22;22382;44.768;17.206;2024-02-21T11:30:38;13.80;71.50
36352;DHT22;22382;44.768;17.206;2024-02-21T11:33:07;13.70;70.30
36352;DHT22;22382;44.768;17.206;2024-02-21T11:35:35;13.80;70.20
36352;DHT22;22382;44.768;17.206;2024-02-21T11:38:11;13.90;70.80
36352;DHT22;22382;44.768;17.206;2024-02-21T11:40:44;13.90;69.30
36352;DHT22;22382;44.768;17.206;2024-02-21T11:43:12;13.80;69.30
36352;DHT22;22382;44.768;17.206;2024-02-21T11:45:39;13.50;69.40
36352;DHT22;22382;44.768;17.206;2024-02-21T11:48:07;13.40;69.30
36352;DHT22;22382;44.768;17.206;2024-02-21T11:50:35;13.40;69.90
36352;DHT22;22382;44.768;17.206;2024-02-21T11:53:03;13.40;69.40
36352;DHT22;22382;44.768;17.206;2024-02-21T11:55:31;13.40;68.70
36352;DHT22;22382;44.768;17.206;2024-02-21T11:57:58;13.70;66.80
36352;DHT22;22382;44.768;17.206;2024-02-21T12:00:26;13.80;66.60
36352;DHT22;22382;44.768;17.206;2024-02-21T12:02:54;13.90;68.40
36352;DHT22;22382;44.768;17.206;2024-02-21T12:05:27;14.10;67.40
36352;DHT22;22382;44.768;17.206;2024-02-21T12:07:56;14.10;65.80
36352;DHT22;22382;44.768;17.206;2024-02-21T12:10:28;14.10;66.40
36352;DHT22;22382;44.768;17.206;2024-02-21T12:13:08;14.10;65.00
36352;DHT22;22382;44.768;17.206;2024-02-21T12:15:38;14.10;65.50
36352;DHT22;22382;44.768;17.206;2024-02-21T12:18:05;14.10;63.50
36352;DHT22;22382;44.768;17.206;2024-02-21T12:20:32;14.00;62.70
36352;DHT22;22382;44.768;17.206;2024-02-21T12:23:00;14.00;61.00
36352;DHT22;22382;44.768;17.206;2024-02-21T12:25:28;14.00;61.90
36352;DHT22;22382;44.768;17.206;2024-02-21T12:27:56;14.20;62.20
36352;DHT22;22382;44.768;17.206;2024-02-21T12:30:23;14.40;60.60
36352;DHT22;22382;44.768;17.206;2024-02-21T12:32:50;14.30;59.60
36352;DHT22;22382;44.768;17.206;2024-02-21T12:35:18;14.30;60.10
36352;DHT22;22382;44.768;17.206;2024-02-21T12:37:46;14.30;60.90
36352;DHT22;22382;44.768;17.206;2024-02-21T12:40:13;14.40;61.00
36352;DHT22;22382;44.768;17.206;2024-02-21T12:42:42;14.30;60.90
36352;DHT22;22382;44.768;17.206;2024-02-21T12:45:09;14.20;60.60
36352;DHT22;22382;44.768;17.206;2024-02-21T12:47:37;14.30;60.40
36352;DHT22;22382;44.768;17.206;2024-02-21T12:50:06;14.40;60.80
36352;DHT22;22382;44.768;17.206;2024-02-21T12:52:34;14.50;59.60
36352;DHT22;22382;44.768;17.206;2024-02-21T12:55:03;14.50;58.70
36352;DHT22;22382;44.768;17.206;2024-02-21T12:57:31;14.40;57.50
36352;DHT22;22382;44.768;17.206;2024-02-21T12:59:58;14.40;57.60
36352;DHT22;22382;44.768;17.206;2024-02-21T13:02:27;14.40;57.00
36352;DHT22;22382;44.768;17.206;2024-02-21T13:04:54;14.50;57.80
36352;DHT22;22382;44.768;17.206;2024-02-21T13:07:22;14.50;57.70
36352;DHT22;22382;44.768;17.206;2024-02-21T13:09:49;14.60;58.60
36352;DHT22;22382;44.768;17.206;2024-02-21T13:12:17;14.60;58.20
36352;DHT22;22382;44.768;17.206;2024-02-21T13:14:44;14.70;58.20
36352;DHT22;22382;44.768;17.206;2024-02-21T13:17:13;14.70;58.00
36352;DHT22;22382;44.768;17.206;2024-02-21T13:19:42;14.70;57.00
36352;DHT22;22382;44.768;17.206;2024-02-21T13:22:10;14.50;56.10
36352;DHT22;22382;44.768;17.206;2024-02-21T13:24:40;14.40;57.00
36352;DHT22;22382;44.768;17.206;2024-02-21T13:27:07;14.40;55.90
36352;DHT22;22382;44.768;17.206;2024-02-21T13:29:35;14.40;55.90
36352;DHT22;22382;44.768;17.206;2024-02-21T13:32:02;14.40;55.00
36352;DHT22;22382;44.768;17.206;2024-02-21T13:34:29;14.40;55.60
36352;DHT22;22382;44.768;17.206;2024-02-21T13:36:57;14.40;56.90
36352;DHT22;22382;44.768;17.206;2024-02-21T13:39:26;14.40;55.70
36352;DHT22;22382;44.768;17.206;2024-02-21T13:41:53;14.50;57.20
36352;DHT22;22382;44.768;17.206;2024-02-21T13:44:21;14.60;56.90
36352;DHT22;22382;44.768;17.206;2024-02-21T13:46:51;14.60;56.60
36352;DHT22;22382;44.768;17.206;2024-02-21T13:49:18;14.60;55.10
36352;DHT22;22382;44.768;17.206;2024-02-21T13:51:46;14.60;56.00
36352;DHT22;22382;44.768;17.206;2024-02-21T13:54:13;14.50;56.20
36352;DHT22;22382;44.768;17.206;2024-02-21T13:56:46;14.50;55.20
36352;DHT22;22382;44.768;17.206;2024-02-21T13:59:13;14.50;57.00
36352;DHT22;22382;44.768;17.206;2024-02-21T14:01:41;14.60;57.10
36352;DHT22;22382;44.768;17.206;2024-02-21T14:04:08;14.60;56.40
36352;DHT22;22382;44.768;17.206;2024-02-21T14:06:36;14.60;55.80
36352;DHT22;22382;44.768;17.206;2024-02-21T14:09:05;14.50;57.00
36352;DHT22;22382;44.768;17.206;2024-02-21T14:11:34;14.50;56.00
36352;DHT22;22382;44.768;17.206;2024-02-21T14:14:02;14.50;57.30
36352;DHT22;22382;44.768;17.206;2024-02-21T14:16:31;14.40;57.60
36352;DHT22;22382;44.768;17.206;2024-02-21T14:19:01;14.50;57.50
36352;DHT22;22382;44.768;17.206;2024-02-21T14:21:30;14.60;56.30
36352;DHT22;22382;44.768;17.206;2024-02-21T14:23:57;14.60;56.60
36352;DHT22;22382;44.768;17.206;2024-02-21T14:26:25;14.50;54.70
36352;DHT22;22382;44.768;17.206;2024-02-21T14:28:52;14.50;55.90
36352;DHT22;22382;44.768;17.206;2024-02-21T14:31:20;14.50;55.50
36352;DHT22;22382;44.768;17.206;2024-02-21T14:33:47;14.50;56.10
36352;DHT22;22382;44.768;17.206;2024-02-21T14:36:15;14.50;55.10
36352;DHT22;22382;44.768;17.206;2024-02-21T14:38:46;14.50;55.70
36352;DHT22;22382;44.768;17.206;2024-02-21T14:41:13;14.40;55.30
36352;DHT22;22382;44.768;17.206;2024-02-21T14:43:41;14.40;56.40
36352;DHT22;22382;44.768;17.206;2024-02-21T14:46:08;14.40;56.10
36352;DHT22;22382;44.768;17.206;2024-02-21T14:48:35;14.30;55.80
36352;DHT22;22382;44.768;17.206;2024-02-21T14:51:03;14.30;55.20
36352;DHT22;22382;44.768;17.206;2024-02-21T14:53:31;14.30;55.30
36352;DHT22;22382;44.768;17.206;2024-02-21T14:55:58;14.20;55.90
36352;DHT22;22382;44.768;17.206;2024-02-21T14:58:26;14.20;55.80
36352;DHT22;22382;44.768;17.206;2024-02-21T15:00:54;14.30;55.70
36352;DHT22;22382;44.768;17.206;2024-02-21T15:03:21;14.20;56.60
36352;DHT22;22382;44.768;17.206;2024-02-21T15:05:49;14.20;56.00
36352;DHT22;22382;44.768;17.206;2024-02-21T15:08:16;14.20;58.10
36352;DHT22;22382;44.768;17.206;2024-02-21T15:10:45;14.30;57.00
36352;DHT22;22382;44.768;17.206;2024-02-21T15:13:12;14.20;57.90
36352;DHT22;22382;44.768;17.206;2024-02-21T15:15:40;14.20;58.10
36352;DHT22;22382;44.768;17.206;2024-02-21T15:18:23;14.30;59.80
36352;DHT22;22382;44.768;17.206;2024-02-21T15:20:51;14.30;58.70
36352;DHT22;22382;44.768;17.206;2024-02-21T15:23:18;14.20;58.10
36352;DHT22;22382;44.768;17.206;2024-02-21T15:25:47;14.20;56.20
36352;DHT22;22382;44.768;17.206;2024-02-21T15:28:14;14.20;55.80
36352;DHT22;22382;44.768;17.206;2024-02-21T15:30:41;14.10;57.50
36352;DHT22;22382;44.768;17.206;2024-02-21T15:33:08;14.10;57.30
36352;DHT22;22382;44.768;17.206;2024-02-21T15:35:37;14.20;54.40